createdAt,value
2023-04-20T00:01:57.255Z,5.80
2023-04-20T00:04:27.187Z,5.80
2023-04-20T00:06:57.114Z,5.80
2023-04-20T00:09:25.562Z,5.90
2023-04-20T00:11:54.049Z,5.90
2023-04-20T00:14:22.530Z,5.90
2023-04-20T00:16:51.053Z,5.90
2023-04-20T00:19:21.230Z,5.80
2023-04-20T00:21:51.429Z,5.90
2023-04-20T00:24:19.899Z,5.90
2023-04-20T00:26:48.376Z,5.90
2023-04-20T00:29:17.272Z,6.10
2023-04-20T00:31:46.064Z,5.90
2023-04-20T00:34:14.616Z,5.90
2023-04-20T00:36:43.417Z,6.00
2023-04-20T00:39:13.655Z,6.00
2023-04-20T00:41:42.402Z,5.90
2023-04-20T00:44:14.149Z,5.90
2023-04-20T00:46:42.998Z,5.90
2023-04-20T00:49:12.440Z,5.90
2023-04-20T00:51:41.628Z,5.90
2023-04-20T00:54:10.354Z,5.90
2023-04-20T00:56:40.634Z,5.90
2023-04-20T00:59:09.453Z,5.90
2023-04-20T01:01:38.150Z,5.90
2023-04-20T01:04:08.054Z,5.90
2023-04-20T01:06:36.741Z,5.80
2023-04-20T01:09:06.006Z,5.80
2023-04-20T01:11:34.674Z,5.80
2023-04-20T01:14:04.699Z,5.80
2023-04-20T01:16:35.117Z,5.80
2023-04-20T01:19:03.950Z,5.80
2023-04-20T01:21:32.742Z,5.80
2023-04-20T01:24:02.732Z,5.80
2023-04-20T01:26:31.273Z,5.70
2023-04-20T01:29:00.234Z,5.60
2023-04-20T01:31:28.927Z,5.60
2023-04-20T01:33:57.677Z,5.60
2023-04-20T01:36:27.146Z,5.50
2023-04-20T01:38:55.857Z,5.50
2023-04-20T01:41:26.041Z,5.40
2023-04-20T01:43:54.669Z,5.50
2023-04-20T01:46:23.288Z,5.40
2023-04-20T01:48:51.861Z,5.40
2023-04-20T01:51:20.489Z,5.50
2023-04-20T01:53:49.016Z,5.50
2023-04-20T01:56:17.620Z,5.40
2023-04-20T01:58:47.668Z,5.40
2023-04-20T02:01:16.392Z,5.40
2023-04-20T02:03:45.529Z,5.40
2023-04-20T02:06:14.284Z,5.40
2023-04-20T02:08:42.915Z,5.40
2023-04-20T02:11:11.651Z,5.40
2023-04-20T02:13:40.459Z,5.40
2023-04-20T02:16:11.006Z,5.40
2023-04-20T02:18:39.584Z,5.50
2023-04-20T02:21:08.555Z,5.40
2023-04-20T02:23:37.165Z,5.50
2023-04-20T02:26:05.984Z,5.50
2023-04-20T02:28:34.619Z,5.60
2023-04-20T02:31:03.376Z,5.60
2023-04-20T02:33:33.621Z,5.60
2023-04-20T02:36:02.379Z,5.60
2023-04-20T02:38:31.014Z,5.70
2023-04-20T02:41:00.972Z,5.70
2023-04-20T02:43:29.815Z,5.80
2023-04-20T02:45:58.424Z,5.80
2023-04-20T02:48:27.055Z,5.80
2023-04-20T02:50:58.536Z,5.80
2023-04-20T02:53:27.282Z,5.80
2023-04-20T02:55:55.888Z,5.80
2023-04-20T02:58:24.563Z,5.80
2023-04-20T03:00:53.445Z,5.80
2023-04-20T03:03:22.177Z,5.80
2023-04-20T03:05:51.237Z,5.80
2023-04-20T03:08:21.504Z,5.70
2023-04-20T03:10:50.182Z,5.80
2023-04-20T03:13:18.838Z,5.80
2023-04-20T03:15:47.508Z,5.80
2023-04-20T03:18:16.163Z,5.80
2023-04-20T03:20:45.041Z,5.80
2023-04-20T03:23:13.799Z,5.80
2023-04-20T03:25:46.544Z,5.90
2023-04-20T03:28:15.148Z,5.90
2023-04-20T03:30:44.064Z,5.90
2023-04-20T03:33:12.754Z,5.90
2023-04-20T03:35:43.242Z,5.90
2023-04-20T03:38:11.916Z,5.90
2023-04-20T03:40:40.612Z,5.90
2023-04-20T03:43:11.430Z,5.90
2023-04-20T03:45:40.095Z,5.90
2023-04-20T03:48:09.244Z,6.00
2023-04-20T03:50:37.848Z,6.00
2023-04-20T03:53:06.528Z,6.00
2023-04-20T03:55:35.286Z,6.00
2023-04-20T03:58:03.985Z,6.00
2023-04-20T04:00:34.268Z,6.00
2023-04-20T04:03:02.794Z,6.00
2023-04-20T04:05:31.363Z,6.60
2023-04-20T04:07:59.615Z,6.00
2023-04-20T04:10:28.648Z,6.00
2023-04-20T04:12:57.028Z,6.00
2023-04-20T04:15:25.344Z,5.30
2023-04-20T04:17:57.647Z,6.10
2023-04-20T04:20:26.009Z,6.10
2023-04-20T04:22:54.347Z,6.10
2023-04-20T04:25:23.333Z,6.10
2023-04-20T04:27:51.708Z,6.10
2023-04-20T04:30:21.020Z,6.10
2023-04-20T04:32:50.292Z,6.10
2023-04-20T04:35:20.235Z,6.20
2023-04-20T04:37:48.737Z,6.20
2023-04-20T04:40:18.384Z,6.20
2023-04-20T04:42:47.683Z,6.20
2023-04-20T04:45:16.698Z,6.20
2023-04-20T04:47:45.347Z,6.20
2023-04-20T04:50:13.704Z,6.10
2023-04-20T04:52:43.473Z,6.20
2023-04-20T04:55:12.157Z,6.20
2023-04-20T04:57:41.373Z,6.30
2023-04-20T05:00:12.559Z,6.30
2023-04-20T05:02:41.008Z,6.30
2023-04-20T05:05:10.307Z,6.30
2023-04-20T05:07:40.273Z,6.30
2023-04-20T05:10:10.631Z,6.30
2023-04-20T05:12:39.508Z,6.30
2023-04-20T05:15:09.130Z,6.30
2023-04-20T05:17:37.661Z,6.40
2023-04-20T05:20:07.476Z,6.40
2023-04-20T05:22:35.776Z,6.40
2023-04-20T05:25:04.230Z,6.50
2023-04-20T05:27:34.342Z,6.50
2023-04-20T05:30:13.126Z,6.50
2023-04-20T05:32:51.400Z,6.50
2023-04-20T05:35:20.626Z,6.60
2023-04-20T05:37:49.538Z,6.60
2023-04-20T05:40:17.911Z,6.70
2023-04-20T05:42:47.732Z,6.70
2023-04-20T05:45:16.236Z,6.80
2023-04-20T05:47:53.317Z,6.90
2023-04-20T05:50:22.554Z,6.90
2023-04-20T05:52:51.213Z,6.90
2023-04-20T05:55:22.235Z,7.00
2023-04-20T05:57:52.980Z,7.00
2023-04-20T06:00:25.773Z,7.10
2023-04-20T06:02:55.350Z,7.00
2023-04-20T06:05:24.351Z,7.00
2023-04-20T06:07:53.223Z,6.90
2023-04-20T06:10:21.942Z,7.00
2023-04-20T06:12:50.770Z,7.00
2023-04-20T06:15:20.752Z,7.00
2023-04-20T06:17:49.235Z,7.00
2023-04-20T06:20:17.777Z,7.20
2023-04-20T06:22:46.522Z,7.40
2023-04-20T06:25:15.822Z,7.40
2023-04-20T06:27:44.498Z,7.50
2023-04-20T06:30:13.970Z,7.40
2023-04-20T06:32:43.829Z,7.40
2023-04-20T06:35:12.435Z,7.40
2023-04-20T06:37:40.893Z,7.40
2023-04-20T06:40:09.942Z,7.40
2023-04-20T06:42:38.372Z,7.40
2023-04-20T06:45:07.896Z,7.50
2023-04-20T06:47:37.157Z,7.40
2023-04-20T06:50:10.072Z,7.40
2023-04-20T06:52:39.467Z,7.50
2023-04-20T06:55:08.282Z,7.50
2023-04-20T06:57:38.597Z,7.60
2023-04-20T07:00:09.936Z,7.80
2023-04-20T07:02:45.708Z,8.00
2023-04-20T07:05:16.094Z,8.00
2023-04-20T07:07:45.361Z,8.10
2023-04-20T07:10:15.455Z,8.10
2023-04-20T07:12:45.101Z,8.20
2023-04-20T07:15:13.890Z,8.40
2023-04-20T07:17:42.452Z,8.60
2023-04-20T07:20:11.556Z,8.80
2023-04-20T07:22:41.818Z,9.10
2023-04-20T07:25:11.250Z,9.20
2023-04-20T07:27:41.552Z,9.20
2023-04-20T07:30:11.474Z,9.00
2023-04-20T07:32:41.238Z,8.80
2023-04-20T07:35:10.503Z,8.70
2023-04-20T07:37:40.778Z,8.70
2023-04-20T07:40:10.835Z,8.80
2023-04-20T07:42:39.272Z,8.90
2023-04-20T07:45:08.782Z,9.00
2023-04-20T07:47:38.016Z,9.20
2023-04-20T07:50:07.924Z,9.30
2023-04-20T07:52:36.363Z,9.50
2023-04-20T07:55:08.285Z,9.50
2023-04-20T07:57:36.979Z,9.60
2023-04-20T08:00:07.191Z,9.50
2023-04-20T08:02:35.702Z,9.50
2023-04-20T08:05:04.667Z,9.50
2023-04-20T08:07:33.558Z,9.40
2023-04-20T08:10:02.997Z,9.40
2023-04-20T08:12:32.832Z,9.50
2023-04-20T08:15:04.560Z,9.70
2023-04-20T08:20:02.575Z,9.90
2023-04-20T08:22:31.054Z,10.10
2023-04-20T08:24:59.455Z,10.40
2023-04-20T08:27:29.840Z,10.60
2023-04-20T08:29:59.676Z,10.70
2023-04-20T08:32:28.038Z,11.00
2023-04-20T08:34:57.364Z,11.40
2023-04-20T08:37:26.113Z,11.60
2023-04-20T08:39:54.552Z,11.50
2023-04-20T08:42:22.869Z,11.00
2023-04-20T08:44:51.322Z,10.80
2023-04-20T08:47:22.402Z,10.50
2023-04-20T08:49:54.876Z,10.20
2023-04-20T08:52:23.287Z,9.90
2023-04-20T08:54:56.522Z,9.70
2023-04-20T08:57:26.102Z,9.50
2023-04-20T08:59:54.581Z,9.30
2023-04-20T09:02:24.484Z,9.20
2023-04-20T09:05:03.024Z,9.10
2023-04-20T09:07:31.590Z,9.00
2023-04-20T09:10:01.419Z,8.90
2023-04-20T09:12:29.855Z,8.80
2023-04-20T09:14:58.120Z,8.70
2023-04-20T09:17:35.194Z,8.70
2023-04-20T09:20:05.098Z,8.60
2023-04-20T09:22:34.537Z,8.60
2023-04-20T09:25:13.293Z,8.60
2023-04-20T09:27:41.621Z,8.50
2023-04-20T09:30:10.956Z,8.50
2023-04-20T09:32:40.801Z,8.50
2023-04-20T09:35:10.252Z,8.50
2023-04-20T09:37:48.947Z,8.50
2023-04-20T09:40:19.158Z,8.60
2023-04-20T09:42:49.658Z,8.40
2023-04-20T09:45:18.743Z,9.00
2023-04-20T09:47:49.977Z,9.30
2023-04-20T09:50:26.579Z,9.60
2023-04-20T09:52:56.268Z,9.80
2023-04-20T09:55:26.397Z,10.10
2023-04-20T09:57:56.043Z,10.30
2023-04-20T10:00:24.765Z,10.40
2023-04-20T10:02:54.718Z,10.60
2023-04-20T10:05:35.153Z,11.00
2023-04-20T10:08:03.941Z,11.20
2023-04-20T10:10:32.631Z,11.60
2023-04-20T10:13:02.007Z,11.90
2023-04-20T10:15:40.407Z,12.00
2023-04-20T10:18:21.128Z,12.20
2023-04-20T10:20:49.947Z,11.90
2023-04-20T10:23:20.028Z,11.60
2023-04-20T10:25:59.282Z,11.30
2023-04-20T10:28:39.755Z,11.40
2023-04-20T10:31:13.517Z,11.60
2023-04-20T10:33:52.808Z,11.70
2023-04-20T10:36:30.248Z,11.80
2023-04-20T10:38:59.108Z,12.10
2023-04-20T10:41:27.566Z,12.30
2023-04-20T10:43:56.153Z,12.40
2023-04-20T10:46:25.858Z,12.40
2023-04-20T10:48:56.886Z,12.50
2023-04-20T10:51:26.152Z,12.70
2023-04-20T10:54:06.303Z,12.50
2023-04-20T10:56:41.552Z,12.20
2023-04-20T10:59:11.524Z,12.00
2023-04-20T11:01:39.999Z,11.90
2023-04-20T11:04:10.728Z,11.80
2023-04-20T11:06:40.829Z,11.60
2023-04-20T11:09:20.122Z,11.60
2023-04-20T11:11:59.313Z,11.80
2023-04-20T11:14:27.935Z,12.00
2023-04-20T11:16:56.767Z,12.20
2023-04-20T11:19:28.225Z,12.40
2023-04-20T11:21:57.625Z,12.40
2023-04-20T11:24:27.428Z,12.40
2023-04-20T11:26:58.089Z,12.40
2023-04-20T11:29:34.142Z,12.30
2023-04-20T11:32:06.565Z,12.20
2023-04-20T11:34:38.191Z,12.00
2023-04-20T11:37:07.603Z,12.00
2023-04-20T11:39:36.267Z,12.10
2023-04-20T11:42:05.540Z,12.20
2023-04-20T11:44:37.204Z,12.20
2023-04-20T11:47:06.309Z,12.10
2023-04-20T11:49:36.505Z,12.30
2023-04-20T11:52:05.295Z,12.30
2023-04-20T11:54:35.209Z,12.30
2023-04-20T11:57:04.507Z,12.40
2023-04-20T11:59:32.860Z,12.40
2023-04-20T12:02:04.373Z,12.60
2023-04-20T12:04:34.569Z,12.90
2023-04-20T12:07:04.596Z,13.20
2023-04-20T12:09:36.190Z,13.40
2023-04-20T12:12:04.814Z,13.60
2023-04-20T12:14:34.690Z,13.60
2023-04-20T12:17:04.087Z,13.70
2023-04-20T12:19:32.778Z,13.90
2023-04-20T12:22:01.430Z,14.00
2023-04-20T12:24:31.217Z,14.10
2023-04-20T12:26:59.727Z,14.20
2023-04-20T12:29:28.154Z,14.10
2023-04-20T12:31:56.670Z,14.10
2023-04-20T12:34:25.328Z,14.20
2023-04-20T12:36:53.898Z,14.10
2023-04-20T12:39:22.468Z,14.10
2023-04-20T12:41:52.390Z,14.10
2023-04-20T12:44:21.169Z,14.10
2023-04-20T12:46:49.926Z,14.10
2023-04-20T12:49:18.756Z,14.00
2023-04-20T12:51:47.288Z,14.20
2023-04-20T12:54:15.972Z,14.30
2023-04-20T12:56:44.632Z,14.60
2023-04-20T12:59:14.452Z,14.60
2023-04-20T13:01:42.839Z,14.60
2023-04-20T13:04:11.545Z,14.60
2023-04-20T13:06:40.269Z,14.50
2023-04-20T13:09:09.432Z,14.50
2023-04-20T13:11:38.035Z,14.40
2023-04-20T13:14:06.588Z,14.40
2023-04-20T13:16:36.571Z,14.50
2023-04-20T13:19:05.314Z,14.50
2023-04-20T13:21:34.453Z,14.60
2023-04-20T13:24:03.035Z,14.50
2023-04-20T13:26:31.572Z,14.70
2023-04-20T13:29:00.172Z,14.90
2023-04-20T13:31:28.808Z,15.10
2023-04-20T13:33:58.708Z,14.90
2023-04-20T13:36:28.463Z,15.00
2023-04-20T13:38:57.575Z,15.20
2023-04-20T13:41:26.151Z,15.30
2023-04-20T13:43:54.622Z,15.30
2023-04-20T13:46:23.206Z,15.40
2023-04-20T13:48:51.785Z,15.30
2023-04-20T13:51:21.818Z,15.30
2023-04-20T13:53:50.307Z,15.50
2023-04-20T13:56:18.761Z,15.80
2023-04-20T13:58:47.326Z,15.80
2023-04-20T14:01:17.566Z,15.70
2023-04-20T14:03:46.326Z,15.50
2023-04-20T14:06:14.902Z,15.40
2023-04-20T14:08:44.782Z,15.50
2023-04-20T14:11:13.215Z,15.60
2023-04-20T14:13:41.687Z,15.50
2023-04-20T14:16:11.098Z,15.60
2023-04-20T14:18:39.576Z,15.80
2023-04-20T14:21:08.101Z,16.00
2023-04-20T14:23:36.598Z,16.10
2023-04-20T14:26:06.553Z,16.20
2023-04-20T14:28:36.093Z,16.00
2023-04-20T14:31:04.704Z,16.10
2023-04-20T14:33:33.306Z,15.90
2023-04-20T14:36:01.692Z,15.70
2023-04-20T14:38:30.059Z,15.60
2023-04-20T14:40:58.581Z,15.60
2023-04-20T14:43:28.358Z,15.60
2023-04-20T14:45:58.913Z,15.50
2023-04-20T14:48:27.882Z,15.50
2023-04-20T14:50:56.597Z,15.50
2023-04-20T14:53:25.252Z,15.60
2023-04-20T14:55:53.640Z,15.60
2023-04-20T14:58:22.021Z,15.70
2023-04-20T15:00:54.188Z,15.80
2023-04-20T15:03:22.954Z,15.90
2023-04-20T15:05:51.770Z,16.10
2023-04-20T15:08:20.214Z,16.30
2023-04-20T15:10:48.704Z,16.50
2023-04-20T15:13:17.170Z,16.60
2023-04-20T15:15:48.880Z,16.50
2023-04-20T15:18:19.528Z,16.60
2023-04-20T15:20:48.041Z,16.50
2023-04-20T15:23:16.417Z,16.50
2023-04-20T15:25:45.114Z,16.30
2023-04-20T15:28:15.926Z,16.20
2023-04-20T15:30:44.394Z,16.10
2023-04-20T15:33:12.921Z,16.10
2023-04-20T15:35:42.932Z,16.10
2023-04-20T15:38:11.394Z,16.10
2023-04-20T15:40:40.158Z,16.00
2023-04-20T15:43:08.605Z,16.00
2023-04-20T15:45:37.142Z,15.90
2023-04-20T15:48:06.422Z,15.90
2023-04-20T15:50:35.788Z,15.90
2023-04-20T15:53:05.628Z,15.90
2023-04-20T15:55:35.742Z,16.00
2023-04-20T15:58:04.167Z,16.00
2023-04-20T16:00:32.737Z,15.90
2023-04-20T16:03:02.203Z,16.00
2023-04-20T16:05:31.035Z,16.00
2023-04-20T16:07:59.472Z,16.00
2023-04-20T16:10:29.649Z,16.10
2023-04-20T16:12:58.337Z,15.90
2023-04-20T16:15:29.653Z,16.90
2023-04-20T16:18:00.104Z,15.80
2023-04-20T16:20:28.659Z,15.70
2023-04-20T16:22:57.258Z,15.70
2023-04-20T16:25:25.994Z,15.70
2023-04-20T16:27:56.094Z,15.70
2023-04-20T16:30:24.708Z,15.60
2023-04-20T16:32:53.306Z,15.60
2023-04-20T16:35:21.915Z,15.40
2023-04-20T16:37:50.208Z,15.40
2023-04-20T16:40:21.013Z,15.30
2023-04-20T16:42:49.376Z,15.30
2023-04-20T16:45:19.227Z,15.20
2023-04-20T16:47:47.893Z,15.20
2023-04-20T16:50:19.663Z,15.30
2023-04-20T16:52:48.341Z,15.40
2023-04-20T16:55:17.148Z,15.40
2023-04-20T16:57:45.591Z,15.40
2023-04-20T17:00:15.207Z,15.50
2023-04-20T17:02:45.174Z,15.50
2023-04-20T17:05:13.667Z,15.50
2023-04-20T17:07:41.979Z,15.50
2023-04-20T17:10:10.836Z,15.60
2023-04-20T17:12:41.665Z,15.50
2023-04-20T17:15:11.713Z,15.50
2023-04-20T17:17:40.253Z,15.50
2023-04-20T17:20:12.000Z,15.40
2023-04-20T17:22:40.336Z,15.40
2023-04-20T17:25:09.824Z,15.40
2023-04-20T17:27:38.169Z,15.30
2023-04-20T17:30:07.724Z,15.20
2023-04-20T17:32:36.199Z,15.10
2023-04-20T17:35:06.036Z,15.10
2023-04-20T17:37:36.637Z,15.00
2023-04-20T17:40:06.419Z,15.00
2023-04-20T17:42:34.861Z,14.90
2023-04-20T17:45:03.585Z,14.80
2023-04-20T17:47:32.837Z,14.70
2023-04-20T17:50:01.449Z,14.70
2023-04-20T17:52:29.929Z,14.60
2023-04-20T17:55:02.006Z,14.50
2023-04-20T17:57:30.624Z,14.50
2023-04-20T17:59:59.026Z,14.40
2023-04-20T18:02:27.605Z,14.30
2023-04-20T18:04:59.778Z,14.30
2023-04-20T18:07:28.537Z,14.20
2023-04-20T18:09:57.008Z,14.10
2023-04-20T18:12:26.907Z,14.00
2023-04-20T18:14:55.375Z,14.00
2023-04-20T18:17:23.703Z,13.90
2023-04-20T18:19:52.174Z,13.80
2023-04-20T18:22:20.678Z,13.80
2023-04-20T18:24:49.056Z,13.80
2023-04-20T18:27:17.419Z,13.80
2023-04-20T18:29:47.314Z,13.90
2023-04-20T18:32:18.091Z,13.80
2023-04-20T18:34:46.561Z,13.80
2023-04-20T18:37:15.772Z,13.80
2023-04-20T18:39:44.326Z,13.70
2023-04-20T18:42:12.707Z,13.60
2023-04-20T18:44:41.180Z,13.50
2023-04-20T18:47:11.042Z,13.50
2023-04-20T18:49:39.536Z,13.40
2023-04-20T18:52:07.990Z,13.40
2023-04-20T18:54:38.491Z,13.40
2023-04-20T18:57:07.053Z,13.30
2023-04-20T18:59:35.379Z,13.30
2023-04-20T19:02:03.731Z,13.20
2023-04-20T19:04:36.373Z,13.20
2023-04-20T19:07:04.743Z,13.10
2023-04-20T19:09:33.229Z,13.10
2023-04-20T19:12:01.614Z,13.00
2023-04-20T19:14:29.924Z,13.00
2023-04-20T19:16:58.465Z,12.90
2023-04-20T19:19:27.055Z,13.00
2023-04-20T19:21:57.832Z,13.60
2023-04-20T19:24:26.211Z,13.00
2023-04-20T19:26:54.969Z,13.00
2023-04-20T19:29:23.348Z,13.00
2023-04-20T19:31:51.877Z,12.80
2023-04-20T19:34:20.532Z,13.00
2023-04-20T19:36:49.115Z,13.00
2023-04-20T19:39:18.958Z,13.00
2023-04-20T19:41:47.654Z,13.00
2023-04-20T19:44:16.308Z,12.90
2023-04-20T19:46:44.804Z,12.90
2023-04-20T19:49:13.140Z,12.80
2023-04-20T19:51:41.577Z,12.80
2023-04-20T19:54:09.973Z,12.80
2023-04-20T19:56:39.723Z,12.80
2023-04-20T19:59:08.070Z,12.70
2023-04-20T20:01:36.543Z,12.70
2023-04-20T20:04:05.180Z,12.70
2023-04-20T20:06:33.761Z,12.60
2023-04-20T20:09:02.152Z,12.60
2023-04-20T20:11:30.628Z,12.50
2023-04-20T20:14:00.567Z,12.40
2023-04-20T20:16:29.324Z,12.40
2023-04-20T20:18:59.450Z,11.90
2023-04-20T20:21:28.013Z,12.40
2023-04-20T20:23:56.448Z,12.40
2023-04-20T20:26:24.824Z,12.40
2023-04-20T20:28:53.432Z,12.40
2023-04-20T20:31:23.321Z,12.40
2023-04-20T20:33:52.182Z,12.40
2023-04-20T20:36:20.621Z,12.50
2023-04-20T20:38:48.988Z,12.40
2023-04-20T20:41:18.408Z,12.40
2023-04-20T20:43:47.324Z,12.40
2023-04-20T20:46:15.833Z,12.40
2023-04-20T20:48:45.764Z,12.40
2023-04-20T20:51:16.251Z,12.30
2023-04-20T20:53:44.516Z,12.40
2023-04-20T20:56:13.064Z,12.40
2023-04-20T20:58:41.913Z,12.30
2023-04-20T21:01:10.544Z,12.40
2023-04-20T21:03:39.406Z,12.40
2023-04-20T21:06:09.787Z,12.40
2023-04-20T21:08:38.508Z,12.40
2023-04-20T21:11:07.071Z,12.30
2023-04-20T21:13:35.673Z,12.30
2023-04-20T21:16:04.547Z,12.20
2023-04-20T21:18:33.829Z,12.20
2023-04-20T21:21:02.443Z,12.10
2023-04-20T21:23:32.285Z,12.20
2023-04-20T21:26:00.892Z,12.20
2023-04-20T21:28:29.486Z,12.20
2023-04-20T21:30:58.101Z,12.30
2023-04-20T21:33:26.676Z,12.30
2023-04-20T21:35:57.690Z,12.30
2023-04-20T21:38:27.403Z,12.30
2023-04-20T21:40:57.483Z,12.30
2023-04-20T21:43:25.993Z,12.30
2023-04-20T21:45:54.495Z,12.30
2023-04-20T21:48:23.214Z,12.20
2023-04-20T21:50:51.612Z,12.20
2023-04-20T21:53:20.183Z,12.10
2023-04-20T21:55:48.812Z,12.10
2023-04-20T21:58:18.898Z,12.10
2023-04-20T22:00:47.397Z,12.10
2023-04-20T22:03:16.104Z,12.00
2023-04-20T22:05:44.650Z,12.00
2023-04-20T22:08:14.741Z,11.90
2023-04-20T22:10:43.325Z,12.00
2023-04-20T22:13:13.413Z,11.90
2023-04-20T22:15:43.421Z,11.90
2023-04-20T22:18:13.017Z,11.90
2023-04-20T22:20:41.599Z,11.90
2023-04-20T22:23:10.188Z,11.90
2023-04-20T22:25:38.988Z,11.90
2023-04-20T22:28:08.004Z,11.90
2023-04-20T22:30:36.782Z,11.90
2023-04-20T22:33:06.961Z,11.90
2023-04-20T22:35:35.809Z,11.90
2023-04-20T22:38:04.128Z,11.90
2023-04-20T22:40:32.595Z,12.00
2023-04-20T22:43:00.905Z,12.00
2023-04-20T22:45:29.198Z,11.90
2023-04-20T22:47:57.481Z,11.90
2023-04-20T22:50:27.498Z,11.90
2023-04-20T22:52:55.661Z,11.90
2023-04-20T22:55:24.249Z,12.00
2023-04-20T22:57:52.766Z,11.90
2023-04-20T23:00:21.604Z,11.90
2023-04-20T23:02:51.508Z,12.70
2023-04-20T23:05:21.182Z,11.80
2023-04-20T23:07:53.448Z,11.80
2023-04-20T23:10:22.424Z,11.80
2023-04-20T23:12:51.037Z,11.80
2023-04-20T23:15:19.610Z,11.80
2023-04-20T23:17:48.290Z,11.80
2023-04-20T23:20:17.272Z,11.80
2023-04-20T23:22:45.872Z,11.90
2023-04-20T23:25:15.748Z,11.90
2023-04-20T23:27:44.363Z,12.00
2023-04-20T23:30:13.786Z,12.00
2023-04-20T23:32:43.912Z,12.00
2023-04-20T23:35:13.311Z,12.00
2023-04-20T23:37:41.883Z,12.00
2023-04-20T23:40:11.544Z,12.00
2023-04-20T23:42:41.512Z,12.00
2023-04-20T23:45:11.298Z,12.00
2023-04-20T23:47:39.781Z,12.00
2023-04-20T23:50:10.105Z,12.10
2023-04-20T23:52:38.640Z,12.10
2023-04-20T23:55:07.837Z,12.10
2023-04-20T23:57:36.354Z,12.10
